sensor_id;sensor_type;location;lat;lon;timestamp;P1;durP1;ratioP1;P2;durP2;ratioP2
3095;SDS011;1558;42.700;23.360;2022-07-19T00:00:58;6.20;;;4.83;;
3095;SDS011;1558;42.700;23.360;2022-07-19T00:03:26;4.93;;;4.50;;
3095;SDS011;1558;42.700;23.360;2022-07-19T00:05:54;5.33;;;4.50;;
3095;SDS011;1558;42.700;23.360;2022-07-19T00:08:22;5.47;;;4.73;;
3095;SDS011;1558;42.700;23.360;2022-07-19T00:10:50;5.23;;;4.43;;
3095;SDS011;1558;42.700;23.360;2022-07-19T00:13:22;5.30;;;4.33;;
3095;SDS011;1558;42.700;23.360;2022-07-19T00:15:51;10.80;;;4.50;;
3095;SDS011;1558;42.700;23.360;2022-07-19T00:18:20;4.50;;;4.10;;
3095;SDS011;1558;42.700;23.360;2022-07-19T00:20:48;7.67;;;4.47;;
3095;SDS011;1558;42.700;23.360;2022-07-19T00:23:16;4.73;;;4.33;;
3095;SDS011;1558;42.700;23.360;2022-07-19T00:25:45;4.83;;;4.43;;
3095;SDS011;1558;42.700;23.360;2022-07-19T00:28:13;4.40;;;4.00;;
3095;SDS011;1558;42.700;23.360;2022-07-19T00:30:41;5.13;;;4.23;;
3095;SDS011;1558;42.700;23.360;2022-07-19T00:33:09;4.40;;;4.00;;
3095;SDS011;1558;42.700;23.360;2022-07-19T00:35:38;5.00;;;3.80;;
3095;SDS011;1558;42.700;23.360;2022-07-19T00:38:07;5.53;;;4.13;;
3095;SDS011;1558;42.700;23.360;2022-07-19T00:40:36;4.73;;;3.60;;
3095;SDS011;1558;42.700;23.360;2022-07-19T00:43:04;5.60;;;3.67;;
3095;SDS011;1558;42.700;23.360;2022-07-19T00:45:33;4.33;;;3.73;;
3095;SDS011;1558;42.700;23.360;2022-07-19T00:48:02;4.90;;;3.60;;
3095;SDS011;1558;42.700;23.360;2022-07-19T00:50:31;4.77;;;3.97;;
3095;SDS011;1558;42.700;23.360;2022-07-19T00:53:01;3.70;;;3.40;;
3095;SDS011;1558;42.700;23.360;2022-07-19T00:55:31;3.73;;;3.30;;
3095;SDS011;1558;42.700;23.360;2022-07-19T00:58:01;7.13;;;3.73;;
3095;SDS011;1558;42.700;23.360;2022-07-19T01:00:31;3.43;;;3.13;;
3095;SDS011;1558;42.700;23.360;2022-07-19T01:03:00;6.37;;;3.87;;
3095;SDS011;1558;42.700;23.360;2022-07-19T01:05:28;4.07;;;3.33;;
3095;SDS011;1558;42.700;23.360;2022-07-19T01:07:57;3.50;;;3.20;;
3095;SDS011;1558;42.700;23.360;2022-07-19T01:10:26;4.93;;;3.57;;
3095;SDS011;1558;42.700;23.360;2022-07-19T01:12:55;4.10;;;3.47;;
3095;SDS011;1558;42.700;23.360;2022-07-19T01:15:24;4.63;;;3.60;;
3095;SDS011;1558;42.700;23.360;2022-07-19T01:17:54;3.93;;;3.60;;
3095;SDS011;1558;42.700;23.360;2022-07-19T01:20:22;3.83;;;3.27;;
3095;SDS011;1558;42.700;23.360;2022-07-19T01:22:58;5.03;;;3.90;;
3095;SDS011;1558;42.700;23.360;2022-07-19T01:25:27;6.97;;;4.20;;
3095;SDS011;1558;42.700;23.360;2022-07-19T01:27:56;5.17;;;4.30;;
3095;SDS011;1558;42.700;23.360;2022-07-19T01:30:25;5.77;;;4.00;;
3095;SDS011;1558;42.700;23.360;2022-07-19T01:32:54;5.23;;;4.37;;
3095;SDS011;1558;42.700;23.360;2022-07-19T01:35:22;6.30;;;4.63;;
3095;SDS011;1558;42.700;23.360;2022-07-19T01:37:51;5.37;;;4.10;;
3095;SDS011;1558;42.700;23.360;2022-07-19T01:40:20;5.47;;;4.60;;
3095;SDS011;1558;42.700;23.360;2022-07-19T01:42:49;5.63;;;4.83;;
3095;SDS011;1558;42.700;23.360;2022-07-19T01:45:18;6.17;;;4.70;;
3095;SDS011;1558;42.700;23.360;2022-07-19T01:47:46;5.63;;;4.43;;
3095;SDS011;1558;42.700;23.360;2022-07-19T01:50:15;4.47;;;4.07;;
3095;SDS011;1558;42.700;23.360;2022-07-19T01:52:44;4.90;;;4.50;;
3095;SDS011;1558;42.700;23.360;2022-07-19T01:55:16;6.80;;;5.00;;
3095;SDS011;1558;42.700;23.360;2022-07-19T01:57:46;6.13;;;4.47;;
3095;SDS011;1558;42.700;23.360;2022-07-19T02:00:14;5.27;;;4.60;;
3095;SDS011;1558;42.700;23.360;2022-07-19T02:02:42;5.40;;;4.90;;
3095;SDS011;1558;42.700;23.360;2022-07-19T02:05:11;5.80;;;4.70;;
3095;SDS011;1558;42.700;23.360;2022-07-19T02:07:40;6.27;;;4.90;;
3095;SDS011;1558;42.700;23.360;2022-07-19T02:10:08;7.50;;;5.00;;
3095;SDS011;1558;42.700;23.360;2022-07-19T02:12:37;5.10;;;4.70;;
3095;SDS011;1558;42.700;23.360;2022-07-19T02:15:07;5.67;;;5.17;;
3095;SDS011;1558;42.700;23.360;2022-07-19T02:17:36;6.10;;;5.20;;
3095;SDS011;1558;42.700;23.360;2022-07-19T02:20:04;6.97;;;5.00;;
3095;SDS011;1558;42.700;23.360;2022-07-19T02:22:33;6.10;;;5.30;;
3095;SDS011;1558;42.700;23.360;2022-07-19T02:25:01;5.57;;;4.97;;
3095;SDS011;1558;42.700;23.360;2022-07-19T02:27:30;7.13;;;5.03;;
3095;SDS011;1558;42.700;23.360;2022-07-19T02:29:57;6.00;;;5.40;;
3095;SDS011;1558;42.700;23.360;2022-07-19T02:32:27;5.60;;;5.17;;
3095;SDS011;1558;42.700;23.360;2022-07-19T02:34:55;6.43;;;5.47;;
3095;SDS011;1558;42.700;23.360;2022-07-19T02:37:23;6.40;;;5.70;;
3095;SDS011;1558;42.700;23.360;2022-07-19T02:39:51;6.40;;;4.83;;
3095;SDS011;1558;42.700;23.360;2022-07-19T02:42:19;5.73;;;5.13;;
3095;SDS011;1558;42.700;23.360;2022-07-19T02:44:46;6.77;;;5.60;;
3095;SDS011;1558;42.700;23.360;2022-07-19T02:47:14;8.17;;;6.60;;
3095;SDS011;1558;42.700;23.360;2022-07-19T02:49:44;9.93;;;8.93;;
3095;SDS011;1558;42.700;23.360;2022-07-19T02:52:12;10.97;;;9.90;;
3095;SDS011;1558;42.700;23.360;2022-07-19T02:54:40;11.67;;;10.47;;
3095;SDS011;1558;42.700;23.360;2022-07-19T02:57:08;10.60;;;9.13;;
3095;SDS011;1558;42.700;23.360;2022-07-19T02:59:35;14.20;;;12.33;;
3095;SDS011;1558;42.700;23.360;2022-07-19T03:02:03;14.67;;;13.17;;
3095;SDS011;1558;42.700;23.360;2022-07-19T03:04:31;12.33;;;11.10;;
3095;SDS011;1558;42.700;23.360;2022-07-19T03:07:01;15.30;;;10.30;;
3095;SDS011;1558;42.700;23.360;2022-07-19T03:09:29;11.40;;;10.33;;
3095;SDS011;1558;42.700;23.360;2022-07-19T03:11:57;10.67;;;9.50;;
3095;SDS011;1558;42.700;23.360;2022-07-19T03:14:25;9.70;;;8.80;;
3095;SDS011;1558;42.700;23.360;2022-07-19T03:16:54;7.30;;;6.53;;
3095;SDS011;1558;42.700;23.360;2022-07-19T03:19:22;6.60;;;5.60;;
3095;SDS011;1558;42.700;23.360;2022-07-19T03:21:51;9.33;;;6.90;;
3095;SDS011;1558;42.700;23.360;2022-07-19T03:24:21;7.73;;;5.53;;
3095;SDS011;1558;42.700;23.360;2022-07-19T03:26:49;6.87;;;5.07;;
3095;SDS011;1558;42.700;23.360;2022-07-19T03:29:17;5.87;;;5.27;;
3095;SDS011;1558;42.700;23.360;2022-07-19T03:31:52;6.63;;;4.40;;
3095;SDS011;1558;42.700;23.360;2022-07-19T03:34:20;5.40;;;3.80;;
3095;SDS011;1558;42.700;23.360;2022-07-19T03:36:48;4.30;;;3.90;;
3095;SDS011;1558;42.700;23.360;2022-07-19T03:39:16;5.00;;;4.50;;
3095;SDS011;1558;42.700;23.360;2022-07-19T03:41:45;6.03;;;4.10;;
3095;SDS011;1558;42.700;23.360;2022-07-19T03:44:13;6.30;;;4.13;;
3095;SDS011;1558;42.700;23.360;2022-07-19T03:46:41;4.77;;;4.00;;
3095;SDS011;1558;42.700;23.360;2022-07-19T03:49:09;4.93;;;4.40;;
3095;SDS011;1558;42.700;23.360;2022-07-19T03:51:37;5.33;;;4.83;;
3095;SDS011;1558;42.700;23.360;2022-07-19T03:54:05;6.07;;;4.53;;
3095;SDS011;1558;42.700;23.360;2022-07-19T03:56:33;6.50;;;5.47;;
3095;SDS011;1558;42.700;23.360;2022-07-19T03:59:02;6.40;;;5.77;;
3095;SDS011;1558;42.700;23.360;2022-07-19T04:01:31;10.50;;;8.20;;
3095;SDS011;1558;42.700;23.360;2022-07-19T04:03:59;9.33;;;8.10;;
3095;SDS011;1558;42.700;23.360;2022-07-19T04:06:27;10.33;;;9.23;;
3095;SDS011;1558;42.700;23.360;2022-07-19T04:08:55;12.70;;;11.40;;
3095;SDS011;1558;42.700;23.360;2022-07-19T04:11:23;12.53;;;10.10;;
3095;SDS011;1558;42.700;23.360;2022-07-19T04:13:51;12.33;;;11.23;;
3095;SDS011;1558;42.700;23.360;2022-07-19T04:16:20;13.97;;;11.77;;
3095;SDS011;1558;42.700;23.360;2022-07-19T04:18:48;11.57;;;10.40;;
3095;SDS011;1558;42.700;23.360;2022-07-19T04:21:16;13.83;;;9.90;;
3095;SDS011;1558;42.700;23.360;2022-07-19T04:23:44;11.63;;;9.07;;
3095;SDS011;1558;42.700;23.360;2022-07-19T04:26:13;12.50;;;9.40;;
3095;SDS011;1558;42.700;23.360;2022-07-19T04:28:41;12.20;;;10.97;;
3095;SDS011;1558;42.700;23.360;2022-07-19T04:31:09;14.90;;;12.50;;
3095;SDS011;1558;42.700;23.360;2022-07-19T04:33:38;9.63;;;8.10;;
3095;SDS011;1558;42.700;23.360;2022-07-19T04:36:06;6.63;;;5.77;;
3095;SDS011;1558;42.700;23.360;2022-07-19T04:38:34;5.23;;;4.53;;
3095;SDS011;1558;42.700;23.360;2022-07-19T04:41:02;9.23;;;4.60;;
3095;SDS011;1558;42.700;23.360;2022-07-19T04:43:30;5.93;;;4.00;;
3095;SDS011;1558;42.700;23.360;2022-07-19T04:45:58;4.40;;;4.00;;
3095;SDS011;1558;42.700;23.360;2022-07-19T04:48:26;4.33;;;3.83;;
3095;SDS011;1558;42.700;23.360;2022-07-19T04:50:56;4.17;;;3.40;;
3095;SDS011;1558;42.700;23.360;2022-07-19T04:53:24;5.53;;;4.10;;
3095;SDS011;1558;42.700;23.360;2022-07-19T04:55:52;5.57;;;4.00;;
3095;SDS011;1558;42.700;23.360;2022-07-19T04:58:20;4.90;;;3.63;;
3095;SDS011;1558;42.700;23.360;2022-07-19T05:00:48;4.90;;;3.87;;
3095;SDS011;1558;42.700;23.360;2022-07-19T05:03:16;5.93;;;4.33;;
3095;SDS011;1558;42.700;23.360;2022-07-19T05:05:44;5.67;;;4.20;;
3095;SDS011;1558;42.700;23.360;2022-07-19T05:08:13;6.97;;;4.30;;
3095;SDS011;1558;42.700;23.360;2022-07-19T05:10:41;4.50;;;3.33;;
3095;SDS011;1558;42.700;23.360;2022-07-19T05:13:09;6.17;;;5.30;;
3095;SDS011;1558;42.700;23.360;2022-07-19T05:15:37;4.50;;;4.00;;
3095;SDS011;1558;42.700;23.360;2022-07-19T05:18:05;7.60;;;3.70;;
3095;SDS011;1558;42.700;23.360;2022-07-19T05:20:33;4.00;;;3.60;;
3095;SDS011;1558;42.700;23.360;2022-07-19T05:23:01;5.13;;;3.73;;
3095;SDS011;1558;42.700;23.360;2022-07-19T05:25:31;4.22;;;3.38;;
3095;SDS011;1558;42.700;23.360;2022-07-19T05:27:58;6.07;;;3.63;;
3095;SDS011;1558;42.700;23.360;2022-07-19T05:30:26;5.90;;;3.58;;
3095;SDS011;1558;42.700;23.360;2022-07-19T05:32:54;5.13;;;3.53;;
3095;SDS011;1558;42.700;23.360;2022-07-19T05:35:22;5.40;;;3.33;;
3095;SDS011;1558;42.700;23.360;2022-07-19T05:37:51;4.00;;;3.30;;
3095;SDS011;1558;42.700;23.360;2022-07-19T05:40:19;4.32;;;3.15;;
3095;SDS011;1558;42.700;23.360;2022-07-19T05:42:48;5.50;;;3.50;;
3095;SDS011;1558;42.700;23.360;2022-07-19T05:45:16;6.38;;;3.50;;
3095;SDS011;1558;42.700;23.360;2022-07-19T05:47:44;2.90;;;2.70;;
3095;SDS011;1558;42.700;23.360;2022-07-19T05:50:12;4.43;;;3.13;;
3095;SDS011;1558;42.700;23.360;2022-07-19T05:52:40;6.38;;;3.25;;
3095;SDS011;1558;42.700;23.360;2022-07-19T05:55:08;4.65;;;3.10;;
3095;SDS011;1558;42.700;23.360;2022-07-19T05:57:36;6.50;;;3.30;;
3095;SDS011;1558;42.700;23.360;2022-07-19T06:00:06;5.10;;;3.20;;
3095;SDS011;1558;42.700;23.360;2022-07-19T06:02:35;4.20;;;3.25;;
3095;SDS011;1558;42.700;23.360;2022-07-19T06:05:03;3.60;;;3.03;;
3095;SDS011;1558;42.700;23.360;2022-07-19T06:07:31;4.50;;;2.90;;
3095;SDS011;1558;42.700;23.360;2022-07-19T06:09:59;3.50;;;2.90;;
3095;SDS011;1558;42.700;23.360;2022-07-19T06:12:28;4.47;;;2.88;;
3095;SDS011;1558;42.700;23.360;2022-07-19T06:14:56;4.05;;;3.75;;
3095;SDS011;1558;42.700;23.360;2022-07-19T06:17:25;4.30;;;3.00;;
3095;SDS011;1558;42.700;23.360;2022-07-19T06:19:53;3.47;;;2.72;;
3095;SDS011;1558;42.700;23.360;2022-07-19T06:22:21;5.80;;;3.40;;
3095;SDS011;1558;42.700;23.360;2022-07-19T06:24:49;5.97;;;3.33;;
3095;SDS011;1558;42.700;23.360;2022-07-19T06:27:17;4.13;;;3.70;;
3095;SDS011;1558;42.700;23.360;2022-07-19T06:29:45;4.93;;;3.50;;
3095;SDS011;1558;42.700;23.360;2022-07-19T06:32:13;3.67;;;3.35;;
3095;SDS011;1558;42.700;23.360;2022-07-19T06:34:42;6.38;;;3.30;;
3095;SDS011;1558;42.700;23.360;2022-07-19T06:37:10;8.10;;;3.50;;
3095;SDS011;1558;42.700;23.360;2022-07-19T06:39:38;4.38;;;3.45;;
3095;SDS011;1558;42.700;23.360;2022-07-19T06:42:06;4.70;;;3.40;;
3095;SDS011;1558;42.700;23.360;2022-07-19T06:44:34;5.15;;;3.10;;
3095;SDS011;1558;42.700;23.360;2022-07-19T06:47:02;4.43;;;3.10;;
3095;SDS011;1558;42.700;23.360;2022-07-19T06:49:30;4.82;;;2.72;;
3095;SDS011;1558;42.700;23.360;2022-07-19T06:52:00;4.13;;;3.30;;
3095;SDS011;1558;42.700;23.360;2022-07-19T06:54:28;6.65;;;3.40;;
3095;SDS011;1558;42.700;23.360;2022-07-19T06:56:56;12.13;;;3.97;;
3095;SDS011;1558;42.700;23.360;2022-07-19T06:59:25;5.63;;;3.17;;
3095;SDS011;1558;42.700;23.360;2022-07-19T07:01:53;5.40;;;3.30;;
3095;SDS011;1558;42.700;23.360;2022-07-19T07:04:21;4.05;;;3.15;;
3095;SDS011;1558;42.700;23.360;2022-07-19T07:07:05;4.05;;;3.15;;
3095;SDS011;1558;42.700;23.360;2022-07-19T07:09:33;6.00;;;4.05;;
3095;SDS011;1558;42.700;23.360;2022-07-19T07:12:00;4.30;;;3.90;;
3095;SDS011;1558;42.700;23.360;2022-07-19T07:14:28;5.53;;;3.75;;
3095;SDS011;1558;42.700;23.360;2022-07-19T07:16:56;3.33;;;3.08;;
3095;SDS011;1558;42.700;23.360;2022-07-19T07:19:24;3.83;;;3.38;;
3095;SDS011;1558;42.700;23.360;2022-07-19T07:21:52;3.80;;;3.40;;
3095;SDS011;1558;42.700;23.360;2022-07-19T07:24:25;4.00;;;3.47;;
3095;SDS011;1558;42.700;23.360;2022-07-19T07:26:53;3.63;;;3.33;;
3095;SDS011;1558;42.700;23.360;2022-07-19T07:29:21;4.05;;;2.88;;
3095;SDS011;1558;42.700;23.360;2022-07-19T07:31:49;5.10;;;3.10;;
3095;SDS011;1558;42.700;23.360;2022-07-19T07:34:17;3.40;;;3.10;;
3095;SDS011;1558;42.700;23.360;2022-07-19T07:36:45;8.40;;;3.80;;
3095;SDS011;1558;42.700;23.360;2022-07-19T07:39:13;4.03;;;3.30;;
3095;SDS011;1558;42.700;23.360;2022-07-19T07:41:43;4.57;;;3.15;;
3095;SDS011;1558;42.700;23.360;2022-07-19T07:44:23;3.53;;;3.22;;
3095;SDS011;1558;42.700;23.360;2022-07-19T07:46:51;3.78;;;3.47;;
3095;SDS011;1558;42.700;23.360;2022-07-19T07:49:19;6.32;;;3.67;;
3095;SDS011;1558;42.700;23.360;2022-07-19T07:51:47;3.83;;;3.53;;
3095;SDS011;1558;42.700;23.360;2022-07-19T07:54:15;3.28;;;3.08;;
3095;SDS011;1558;42.700;23.360;2022-07-19T07:56:45;3.95;;;3.00;;
3095;SDS011;1558;42.700;23.360;2022-07-19T07:59:13;3.10;;;2.90;;
3095;SDS011;1558;42.700;23.360;2022-07-19T08:01:41;4.72;;;3.15;;
3095;SDS011;1558;42.700;23.360;2022-07-19T08:04:10;3.38;;;3.08;;
3095;SDS011;1558;42.700;23.360;2022-07-19T08:06:38;3.97;;;3.38;;
3095;SDS011;1558;42.700;23.360;2022-07-19T08:09:06;5.30;;;3.10;;
3095;SDS011;1558;42.700;23.360;2022-07-19T08:11:34;4.18;;;3.00;;
3095;SDS011;1558;42.700;23.360;2022-07-19T08:14:04;7.25;;;4.15;;
3095;SDS011;1558;42.700;23.360;2022-07-19T08:16:32;3.20;;;2.95;;
3095;SDS011;1558;42.700;23.360;2022-07-19T08:19:00;3.30;;;3.03;;
3095;SDS011;1558;42.700;23.360;2022-07-19T08:21:28;3.10;;;2.80;;
3095;SDS011;1558;42.700;23.360;2022-07-19T08:23:56;4.40;;;3.20;;
3095;SDS011;1558;42.700;23.360;2022-07-19T08:26:24;3.33;;;3.03;;
3095;SDS011;1558;42.700;23.360;2022-07-19T08:28:52;5.40;;;3.17;;
3095;SDS011;1558;42.700;23.360;2022-07-19T08:31:21;3.88;;;3.13;;
3095;SDS011;1558;42.700;23.360;2022-07-19T08:33:49;3.75;;;3.00;;
3095;SDS011;1558;42.700;23.360;2022-07-19T08:36:17;6.68;;;3.10;;
3095;SDS011;1558;42.700;23.360;2022-07-19T08:38:45;4.53;;;3.28;;
3095;SDS011;1558;42.700;23.360;2022-07-19T08:41:13;3.33;;;3.00;;
3095;SDS011;1558;42.700;23.360;2022-07-19T08:43:42;4.18;;;3.13;;
3095;SDS011;1558;42.700;23.360;2022-07-19T08:46:10;3.75;;;3.38;;
3095;SDS011;1558;42.700;23.360;2022-07-19T08:48:39;5.15;;;3.20;;
3095;SDS011;1558;42.700;23.360;2022-07-19T08:51:13;3.13;;;2.90;;
3095;SDS011;1558;42.700;23.360;2022-07-19T08:53:44;3.50;;;3.20;;
3095;SDS011;1558;42.700;23.360;2022-07-19T08:56:12;3.90;;;3.60;;
3095;SDS011;1558;42.700;23.360;2022-07-19T08:58:58;3.85;;;3.47;;
3095;SDS011;1558;42.700;23.360;2022-07-19T09:01:26;3.03;;;2.83;;
3095;SDS011;1558;42.700;23.360;2022-07-19T09:06:52;3.70;;;3.33;;
3095;SDS011;1558;42.700;23.360;2022-07-19T09:09:21;4.03;;;3.10;;
3095;SDS011;1558;42.700;23.360;2022-07-19T09:11:52;6.43;;;3.45;;
3095;SDS011;1558;42.700;23.360;2022-07-19T09:14:22;4.88;;;3.15;;
3095;SDS011;1558;42.700;23.360;2022-07-19T09:16:53;8.25;;;7.45;;
3095;SDS011;1558;42.700;23.360;2022-07-19T09:19:31;3.38;;;3.17;;
3095;SDS011;1558;42.700;23.360;2022-07-19T09:22:02;3.20;;;2.90;;
3095;SDS011;1558;42.700;23.360;2022-07-19T09:24:32;3.85;;;3.33;;
3095;SDS011;1558;42.700;23.360;2022-07-19T09:27:03;4.00;;;3.22;;
3095;SDS011;1558;42.700;23.360;2022-07-19T09:29:34;3.47;;;3.17;;
3095;SDS011;1558;42.700;23.360;2022-07-19T09:32:05;4.25;;;3.38;;
3095;SDS011;1558;42.700;23.360;2022-07-19T09:34:37;3.90;;;3.15;;
3095;SDS011;1558;42.700;23.360;2022-07-19T09:37:07;5.50;;;3.10;;
3095;SDS011;1558;42.700;23.360;2022-07-19T09:39:43;3.25;;;3.00;;
3095;SDS011;1558;42.700;23.360;2022-07-19T09:42:13;3.20;;;2.90;;
3095;SDS011;1558;42.700;23.360;2022-07-19T09:44:45;4.07;;;3.00;;
3095;SDS011;1558;42.700;23.360;2022-07-19T09:47:14;3.45;;;3.15;;
3095;SDS011;1558;42.700;23.360;2022-07-19T09:49:59;5.38;;;3.20;;
3095;SDS011;1558;42.700;23.360;2022-07-19T09:52:28;3.58;;;3.28;;
3095;SDS011;1558;42.700;23.360;2022-07-19T09:55:07;3.55;;;3.25;;
3095;SDS011;1558;42.700;23.360;2022-07-19T09:57:36;3.85;;;3.22;;
3095;SDS011;1558;42.700;23.360;2022-07-19T10:00:07;4.03;;;3.08;;
3095;SDS011;1558;42.700;23.360;2022-07-19T10:02:38;4.18;;;3.13;;
3095;SDS011;1558;42.700;23.360;2022-07-19T10:05:11;4.28;;;3.10;;
3095;SDS011;1558;42.700;23.360;2022-07-19T10:07:40;3.60;;;2.95;;
3095;SDS011;1558;42.700;23.360;2022-07-19T10:10:08;4.40;;;3.17;;
3095;SDS011;1558;42.700;23.360;2022-07-19T10:12:38;4.43;;;3.00;;
3095;SDS011;1558;42.700;23.360;2022-07-19T10:15:09;5.80;;;2.90;;
3095;SDS011;1558;42.700;23.360;2022-07-19T10:17:40;4.10;;;3.00;;
3095;SDS011;1558;42.700;23.360;2022-07-19T10:20:16;3.50;;;3.20;;
3095;SDS011;1558;42.700;23.360;2022-07-19T10:22:47;3.50;;;3.20;;
3095;SDS011;1558;42.700;23.360;2022-07-19T10:25:17;5.70;;;4.03;;
3095;SDS011;1558;42.700;23.360;2022-07-19T10:27:47;4.35;;;2.85;;
3095;SDS011;1558;42.700;23.360;2022-07-19T10:30:20;3.42;;;3.13;;
3095;SDS011;1558;42.700;23.360;2022-07-19T10:32:51;6.32;;;3.20;;
3095;SDS011;1558;42.700;23.360;2022-07-19T10:35:23;3.92;;;3.63;;
3095;SDS011;1558;42.700;23.360;2022-07-19T10:38:06;3.60;;;3.30;;
3095;SDS011;1558;42.700;23.360;2022-07-19T10:40:36;3.58;;;3.28;;
3095;SDS011;1558;42.700;23.360;2022-07-19T10:43:09;3.85;;;2.95;;
3095;SDS011;1558;42.700;23.360;2022-07-19T10:45:38;6.93;;;3.00;;
3095;SDS011;1558;42.700;23.360;2022-07-19T10:48:10;6.43;;;3.50;;
3095;SDS011;1558;42.700;23.360;2022-07-19T10:50:54;3.75;;;3.40;;
3095;SDS011;1558;42.700;23.360;2022-07-19T10:56:39;4.18;;;3.20;;
3095;SDS011;1558;42.700;23.360;2022-07-19T10:59:30;4.55;;;3.60;;
3095;SDS011;1558;42.700;23.360;2022-07-19T11:02:00;3.92;;;3.63;;
3095;SDS011;1558;42.700;23.360;2022-07-19T11:04:49;6.90;;;5.03;;
3095;SDS011;1558;42.700;23.360;2022-07-19T11:07:19;4.53;;;4.10;;
3095;SDS011;1558;42.700;23.360;2022-07-19T11:09:50;6.25;;;3.40;;
3095;SDS011;1558;42.700;23.360;2022-07-19T11:12:22;4.10;;;3.70;;
3095;SDS011;1558;42.700;23.360;2022-07-19T11:14:58;3.85;;;3.58;;
3095;SDS011;1558;42.700;23.360;2022-07-19T11:17:50;3.78;;;3.42;;
3095;SDS011;1558;42.700;23.360;2022-07-19T11:20:22;4.00;;;3.70;;
3095;SDS011;1558;42.700;23.360;2022-07-19T11:22:53;5.43;;;3.72;;
3095;SDS011;1558;42.700;23.360;2022-07-19T11:25:24;4.63;;;3.60;;
3095;SDS011;1558;42.700;23.360;2022-07-19T11:27:53;6.05;;;3.58;;
3095;SDS011;1558;42.700;23.360;2022-07-19T11:30:22;5.00;;;3.40;;
3095;SDS011;1558;42.700;23.360;2022-07-19T11:32:52;6.30;;;3.05;;
3095;SDS011;1558;42.700;23.360;2022-07-19T11:35:21;3.63;;;3.33;;
3095;SDS011;1558;42.700;23.360;2022-07-19T11:37:51;3.78;;;3.47;;
3095;SDS011;1558;42.700;23.360;2022-07-19T11:40:22;5.72;;;3.30;;
3095;SDS011;1558;42.700;23.360;2022-07-19T11:42:51;3.30;;;3.00;;
3095;SDS011;1558;42.700;23.360;2022-07-19T11:45:43;3.83;;;3.28;;
3095;SDS011;1558;42.700;23.360;2022-07-19T11:48:22;6.57;;;3.60;;
3095;SDS011;1558;42.700;23.360;2022-07-19T11:50:58;4.75;;;3.17;;
3095;SDS011;1558;42.700;23.360;2022-07-19T11:53:30;4.38;;;3.40;;
3095;SDS011;1558;42.700;23.360;2022-07-19T11:55:58;11.30;;;3.50;;
3095;SDS011;1558;42.700;23.360;2022-07-19T11:58:27;3.67;;;3.15;;
3095;SDS011;1558;42.700;23.360;2022-07-19T12:01:03;4.93;;;4.53;;
3095;SDS011;1558;42.700;23.360;2022-07-19T12:03:32;3.45;;;3.22;;
3095;SDS011;1558;42.700;23.360;2022-07-19T12:06:01;3.20;;;2.90;;
3095;SDS011;1558;42.700;23.360;2022-07-19T12:08:38;3.78;;;3.30;;
3095;SDS011;1558;42.700;23.360;2022-07-19T12:11:15;3.33;;;3.03;;
3095;SDS011;1558;42.700;23.360;2022-07-19T12:13:44;3.13;;;2.80;;
3095;SDS011;1558;42.700;23.360;2022-07-19T12:16:15;10.18;;;8.98;;
3095;SDS011;1558;42.700;23.360;2022-07-19T12:18:45;4.72;;;4.13;;
3095;SDS011;1558;42.700;23.360;2022-07-19T12:21:18;3.20;;;2.90;;
3095;SDS011;1558;42.700;23.360;2022-07-19T12:24:11;4.05;;;3.10;;
3095;SDS011;1558;42.700;23.360;2022-07-19T12:26:56;6.22;;;5.68;;
3095;SDS011;1558;42.700;23.360;2022-07-19T12:29:31;3.45;;;3.15;;
3095;SDS011;1558;42.700;23.360;2022-07-19T12:32:02;5.00;;;3.60;;
3095;SDS011;1558;42.700;23.360;2022-07-19T12:34:41;5.53;;;4.32;;
3095;SDS011;1558;42.700;23.360;2022-07-19T12:37:17;4.60;;;3.53;;
3095;SDS011;1558;42.700;23.360;2022-07-19T12:39:57;5.90;;;3.20;;
3095;SDS011;1558;42.700;23.360;2022-07-19T12:42:34;6.00;;;4.10;;
3095;SDS011;1558;42.700;23.360;2022-07-19T12:45:03;4.97;;;3.15;;
3095;SDS011;1558;42.700;23.360;2022-07-19T12:47:33;6.05;;;3.00;;
3095;SDS011;1558;42.700;23.360;2022-07-19T12:50:04;4.68;;;3.00;;
3095;SDS011;1558;42.700;23.360;2022-07-19T12:52:38;3.40;;;3.20;;
3095;SDS011;1558;42.700;23.360;2022-07-19T12:55:08;3.85;;;3.45;;
3095;SDS011;1558;42.700;23.360;2022-07-19T12:57:44;5.85;;;5.45;;
3095;SDS011;1558;42.700;23.360;2022-07-19T13:00:14;4.70;;;3.45;;
3095;SDS011;1558;42.700;23.360;2022-07-19T13:02:42;4.97;;;3.47;;
3095;SDS011;1558;42.700;23.360;2022-07-19T13:05:12;4.10;;;3.72;;
3095;SDS011;1558;42.700;23.360;2022-07-19T13:07:40;4.18;;;3.65;;
3095;SDS011;1558;42.700;23.360;2022-07-19T13:10:09;5.10;;;4.32;;
3095;SDS011;1558;42.700;23.360;2022-07-19T13:12:38;7.00;;;6.40;;
3095;SDS011;1558;42.700;23.360;2022-07-19T13:15:08;4.93;;;4.53;;
3095;SDS011;1558;42.700;23.360;2022-07-19T13:17:37;3.50;;;3.20;;
3095;SDS011;1558;42.700;23.360;2022-07-19T13:20:06;3.22;;;2.97;;
3095;SDS011;1558;42.700;23.360;2022-07-19T13:22:35;3.88;;;3.17;;
3095;SDS011;1558;42.700;23.360;2022-07-19T13:25:05;4.30;;;3.40;;
3095;SDS011;1558;42.700;23.360;2022-07-19T13:27:56;4.30;;;3.90;;
3095;SDS011;1558;42.700;23.360;2022-07-19T13:30:24;9.85;;;6.95;;
3095;SDS011;1558;42.700;23.360;2022-07-19T13:32:52;5.05;;;4.55;;
3095;SDS011;1558;42.700;23.360;2022-07-19T13:35:21;3.70;;;3.40;;
3095;SDS011;1558;42.700;23.360;2022-07-19T13:37:49;16.30;;;13.02;;
3095;SDS011;1558;42.700;23.360;2022-07-19T13:40:17;7.55;;;6.85;;
3095;SDS011;1558;42.700;23.360;2022-07-19T13:42:45;5.75;;;4.22;;
3095;SDS011;1558;42.700;23.360;2022-07-19T13:45:15;6.75;;;6.07;;
3095;SDS011;1558;42.700;23.360;2022-07-19T13:47:43;7.20;;;6.50;;
3095;SDS011;1558;42.700;23.360;2022-07-19T13:50:11;4.43;;;4.03;;
3095;SDS011;1558;42.700;23.360;2022-07-19T13:52:39;5.95;;;5.22;;
3095;SDS011;1558;42.700;23.360;2022-07-19T13:55:07;9.02;;;5.07;;
3095;SDS011;1558;42.700;23.360;2022-07-19T13:57:35;6.55;;;5.68;;
3095;SDS011;1558;42.700;23.360;2022-07-19T14:00:04;5.95;;;5.07;;
3095;SDS011;1558;42.700;23.360;2022-07-19T14:02:37;10.57;;;9.57;;
3095;SDS011;1558;42.700;23.360;2022-07-19T14:05:06;5.90;;;3.60;;
3095;SDS011;1558;42.700;23.360;2022-07-19T14:07:34;4.55;;;4.13;;
3095;SDS011;1558;42.700;23.360;2022-07-19T14:10:02;8.38;;;6.82;;
3095;SDS011;1558;42.700;23.360;2022-07-19T14:12:31;10.00;;;9.00;;
3095;SDS011;1558;42.700;23.360;2022-07-19T14:14:59;8.25;;;7.40;;
3095;SDS011;1558;42.700;23.360;2022-07-19T14:17:29;7.78;;;6.32;;
3095;SDS011;1558;42.700;23.360;2022-07-19T14:19:58;5.10;;;4.60;;
3095;SDS011;1558;42.700;23.360;2022-07-19T14:22:26;6.95;;;6.22;;
3095;SDS011;1558;42.700;23.360;2022-07-19T14:24:54;7.03;;;6.43;;
3095;SDS011;1558;42.700;23.360;2022-07-19T14:27:22;4.25;;;3.10;;
3095;SDS011;1558;42.700;23.360;2022-07-19T14:29:50;4.00;;;3.67;;
3095;SDS011;1558;42.700;23.360;2022-07-19T14:32:18;4.18;;;3.63;;
3095;SDS011;1558;42.700;23.360;2022-07-19T14:34:46;4.80;;;4.38;;
3095;SDS011;1558;42.700;23.360;2022-07-19T14:37:16;4.95;;;3.40;;
3095;SDS011;1558;42.700;23.360;2022-07-19T14:39:44;3.38;;;3.08;;
3095;SDS011;1558;42.700;23.360;2022-07-19T14:42:12;10.23;;;9.07;;
3095;SDS011;1558;42.700;23.360;2022-07-19T14:44:40;2.70;;;2.50;;
3095;SDS011;1558;42.700;23.360;2022-07-19T14:47:08;4.20;;;3.80;;
3095;SDS011;1558;42.700;23.360;2022-07-19T14:49:36;5.75;;;4.22;;
3095;SDS011;1558;42.700;23.360;2022-07-19T14:52:05;5.68;;;3.97;;
3095;SDS011;1558;42.700;23.360;2022-07-19T14:54:34;7.47;;;3.20;;
3095;SDS011;1558;42.700;23.360;2022-07-19T14:57:03;3.50;;;3.20;;
3095;SDS011;1558;42.700;23.360;2022-07-19T14:59:30;2.70;;;2.50;;
3095;SDS011;1558;42.700;23.360;2022-07-19T15:01:58;2.80;;;2.60;;
3095;SDS011;1558;42.700;23.360;2022-07-19T15:04:26;2.60;;;2.40;;
3095;SDS011;1558;42.700;23.360;2022-07-19T15:06:54;3.70;;;3.40;;
3095;SDS011;1558;42.700;23.360;2022-07-19T15:09:23;4.85;;;2.85;;
3095;SDS011;1558;42.700;23.360;2022-07-19T15:11:53;4.00;;;3.20;;
3095;SDS011;1558;42.700;23.360;2022-07-19T15:14:26;3.13;;;2.80;;
3095;SDS011;1558;42.700;23.360;2022-07-19T15:16:55;4.05;;;2.95;;
3095;SDS011;1558;42.700;23.360;2022-07-19T15:19:24;4.22;;;3.38;;
3095;SDS011;1558;42.700;23.360;2022-07-19T15:21:52;5.10;;;3.40;;